createdAt,value
2019-05-26T00:06:51.160Z,54.3
2019-05-26T00:22:06.530Z,55
2019-05-26T00:37:08.730Z,55
2019-05-26T00:52:36.947Z,56.1
2019-05-26T01:08:06.829Z,56.4
2019-05-26T01:23:36.375Z,56.9
2019-05-26T01:39:05.462Z,56.3
2019-05-26T01:54:34.566Z,57.3
2019-05-26T02:09:50.273Z,57.4
2019-05-26T02:25:05.338Z,58.4
2019-05-26T02:40:20.345Z,60
2019-05-26T02:55:28.569Z,61.2
2019-05-26T03:10:50.062Z,62.7
2019-05-26T03:26:04.898Z,63.5
2019-05-26T03:41:19.706Z,63
2019-05-26T03:56:21.819Z,62.9
2019-05-26T04:11:49.527Z,61.9
2019-05-26T04:27:04.495Z,60.5
2019-05-26T04:42:19.526Z,59.8
2019-05-26T04:57:34.668Z,59.5
2019-05-26T05:12:49.557Z,45.3
2019-05-26T05:28:05.240Z,41.5
2019-05-26T05:43:20.720Z,38.1
2019-05-26T05:58:35.421Z,34.6
2019-05-26T06:13:52.314Z,32.5
2019-05-26T06:29:08.550Z,30.9
2019-05-26T06:44:22.773Z,30.2
2019-05-26T06:59:41.639Z,24.6
2019-05-26T07:14:58.411Z,25.7
2019-05-26T07:30:00.131Z,25.4
2019-05-26T07:45:32.419Z,25.1
2019-05-26T08:00:49.734Z,23.6
2019-05-26T08:16:07.065Z,23.2
2019-05-26T08:31:08.744Z,23.2
2019-05-26T08:46:41.519Z,22.5
2019-05-26T09:02:00.256Z,21.4
2019-05-26T09:17:18.376Z,21.1
2019-05-26T09:32:36.708Z,20.8
2019-05-26T09:47:50.804Z,20.3
2019-05-26T10:03:13.900Z,17.9
2019-05-26T10:18:32.665Z,19.2
2019-05-26T10:33:51.708Z,19.3
2019-05-26T10:48:59.956Z,18.2
2019-05-26T11:04:30.325Z,17.2
2019-05-26T11:19:49.911Z,17.4
2019-05-26T11:35:09.802Z,16.9
2019-05-26T11:50:29.909Z,16.4
2019-05-26T12:05:43.516Z,16.3
2019-05-26T12:21:10.723Z,16
2019-05-26T12:36:31.307Z,16.1
2019-05-26T12:51:52.976Z,16.1
2019-05-26T13:06:56.086Z,15.6
2019-05-26T13:22:30.097Z,14.9
2019-05-26T13:37:54.626Z,14.8
2019-05-26T13:53:15.854Z,14.9
2019-05-26T14:08:37.198Z,14.6
2019-05-26T14:23:44.520Z,14.4
2019-05-26T14:39:18.748Z,14.5
2019-05-26T14:54:42.034Z,15
2019-05-26T15:10:03.692Z,14.9
2019-05-26T15:25:25.750Z,14
2019-05-26T15:40:33.439Z,14.6
2019-05-26T15:56:07.141Z,15.8
2019-05-26T16:11:29.093Z,16.1
2019-05-26T16:26:49.864Z,15.8
2019-05-26T16:42:11.074Z,15.7
2019-05-26T16:57:19.677Z,15.7
2019-05-26T17:12:53.383Z,15.3
2019-05-26T17:28:14.547Z,15.6
2019-05-26T17:43:35.247Z,16.5
2019-05-26T17:58:55.672Z,18.1
2019-05-26T18:14:04.344Z,19
2019-05-26T18:29:35.365Z,19.9
2019-05-26T18:44:54.961Z,21.4
2019-05-26T19:00:14.425Z,23
2019-05-26T19:15:33.007Z,24.3
2019-05-26T19:30:46.012Z,25.6
2019-05-26T19:46:10.117Z,27.6
2019-05-26T20:01:28.510Z,28.8
2019-05-26T20:16:46.634Z,30.6
2019-05-26T20:31:50.606Z,31.7
2019-05-26T20:47:20.991Z,33.3
2019-05-26T21:02:40.300Z,34.5
2019-05-26T21:17:57.870Z,35.7
2019-05-26T21:33:15.384Z,35.5
2019-05-26T21:48:23.578Z,36.6
2019-05-26T22:03:49.986Z,37.4
2019-05-26T22:19:07.275Z,37.8
2019-05-26T22:34:24.254Z,38.1
2019-05-26T22:49:41.246Z,41.8
2019-05-26T23:04:55.694Z,41.1
2019-05-26T23:20:15.050Z,39.7
2019-05-26T23:35:31.925Z,40
2019-05-26T23:50:48.631Z,41.4
